Time,TemperatureF,DewpointF,PressureIn,WindDirection,WindDirectionDegrees,WindSpeedMPH,WindSpeedGustMPH,Humidity,HourlyPrecipIn,Conditions,Clouds,dailyrainin,SoftwareType,DateUTC
2013-02-06 00:01:00,8.0,7.0,-100.00,WSW,245,6.0,6.0,93,0.00,,,0.00,,2013-02-06 06:01:00,
2013-02-06 00:11:00,8.0,7.0,-100.00,SW,225,4.0,6.0,93,0.00,,,0.00,,2013-02-06 06:11:00,
2013-02-06 00:21:00,9.0,7.0,-100.00,SW,235,3.0,4.0,92,0.00,,,0.00,,2013-02-06 06:21:00,
2013-02-06 00:31:00,9.0,7.0,-100.00,WSW,240,4.0,5.0,92,0.00,,,0.00,,2013-02-06 06:31:00,
2013-02-06 00:42:00,9.0,7.0,-100.00,WSW,245,4.0,4.0,92,0.00,,,0.00,,2013-02-06 06:42:00,
2013-02-06 00:51:00,9.0,9.0,-100.00,SW,235,4.0,6.0,92,0.00,,,0.00,,2013-02-06 06:51:00,
2013-02-06 01:01:00,10.0,9.0,-100.00,West,260,6.0,7.0,92,0.00,,,0.00,,2013-02-06 07:01:00,
2013-02-06 01:11:00,9.0,7.0,-100.00,WSW,245,6.0,7.0,92,0.00,,,0.00,,2013-02-06 07:11:00,
2013-02-06 01:21:00,10.0,7.0,-100.00,WSW,240,2.0,6.0,91,0.00,,,0.00,,2013-02-06 07:21:00,
2013-02-06 01:32:00,10.0,9.0,-100.00,SW,230,4.0,7.0,91,0.00,,,0.00,,2013-02-06 07:32:00,
2013-02-06 01:41:00,10.0,7.0,-100.00,WSW,240,1.0,2.0,91,0.00,,,0.00,,2013-02-06 07:41:00,
2013-02-06 01:51:00,10.0,7.0,-100.00,NW,305,0.0,1.0,91,0.00,,,0.00,,2013-02-06 07:51:00,
2013-02-06 02:01:00,10.0,7.0,-100.00,WNW,300,0.0,1.0,91,0.00,,,0.00,,2013-02-06 08:01:00,
2013-02-06 02:11:00,9.0,7.0,-100.00,SSE,155,1.0,1.0,91,0.00,,,0.00,,2013-02-06 08:11:00,
2013-02-06 02:21:00,9.0,7.0,-100.00,SE,135,3.0,7.0,91,0.00,,,0.00,,2013-02-06 08:21:00,
2013-02-06 02:31:00,8.0,7.0,-100.00,South,170,3.0,3.0,91,0.00,,,0.00,,2013-02-06 08:31:00,
2013-02-06 02:41:00,8.0,7.0,-100.00,South,175,3.0,4.0,92,0.00,,,0.00,,2013-02-06 08:41:00,
2013-02-06 02:53:00,8.0,5.0,-100.00,South,170,4.0,5.0,92,0.00,,,0.00,,2013-02-06 08:53:00,
2013-02-06 03:01:00,8.0,7.0,-100.00,South,170,6.0,6.0,93,0.00,,,0.00,,2013-02-06 09:01:00,
2013-02-06 03:11:00,7.0,5.0,-100.00,SSE,155,6.0,6.0,93,0.00,,,0.00,,2013-02-06 09:11:00,
2013-02-06 03:21:00,7.0,5.0,-100.00,SSE,160,6.0,7.0,93,0.00,,,0.00,,2013-02-06 09:21:00,
2013-02-06 03:31:00,6.0,5.0,-100.00,SSE,160,6.0,7.0,93,0.00,,,0.00,,2013-02-06 09:31:00,
2013-02-06 03:41:00,7.0,5.0,-100.00,South,170,7.0,7.0,94,0.00,,,0.00,,2013-02-06 09:41:00,
2013-02-06 03:51:00,6.0,5.0,-100.00,South,170,6.0,7.0,94,0.00,,,0.00,,2013-02-06 09:51:00,
2013-02-06 04:01:00,6.0,5.0,-100.00,SSE,165,7.0,7.0,94,0.00,,,0.00,,2013-02-06 10:01:00,
2013-02-06 04:11:00,7.0,5.0,-100.00,SSE,165,6.0,7.0,94,0.00,,,0.00,,2013-02-06 10:11:00,
2013-02-06 04:21:00,7.0,5.0,-100.00,SSE,160,6.0,6.0,94,0.00,,,0.00,,2013-02-06 10:21:00,
2013-02-06 04:31:00,8.0,7.0,-100.00,South,170,6.0,6.0,94,0.00,,,0.00,,2013-02-06 10:31:00,
2013-02-06 04:41:00,8.0,7.0,-100.00,South,175,6.0,7.0,94,0.00,,,0.00,,2013-02-06 10:41:00,
2013-02-06 04:51:00,9.0,7.0,-100.00,South,180,7.0,7.0,94,0.00,,,0.00,,2013-02-06 10:51:00,
2013-02-06 05:01:00,9.0,7.0,-100.00,South,170,4.0,7.0,94,0.00,,,0.00,,2013-02-06 11:01:00,
2013-02-06 05:11:00,9.0,7.0,-100.00,South,185,8.0,9.0,94,0.00,,,0.00,,2013-02-06 11:11:00,
2013-02-06 05:22:00,9.0,9.0,-100.00,South,190,9.0,11.0,94,0.00,,,0.00,,2013-02-06 11:22:00,
2013-02-06 05:32:00,10.0,9.0,-100.00,South,190,8.0,12.0,94,0.00,,,0.00,,2013-02-06 11:32:00,
2013-02-06 05:42:00,10.0,9.0,-100.00,SSW,195,7.0,9.0,93,0.00,,,0.00,,2013-02-06 11:42:00,
2013-02-06 05:52:00,11.0,9.0,-100.00,South,190,6.0,9.0,93,0.00,,,0.00,,2013-02-06 11:52:00,
2013-02-06 06:01:00,11.0,9.0,-100.00,South,185,7.0,8.0,93,0.00,,,0.00,,2013-02-06 12:01:00,
2013-02-06 06:12:00,11.0,9.0,-100.00,South,180,6.0,8.0,92,0.00,,,0.00,,2013-02-06 12:12:00,
2013-02-06 06:22:00,11.0,9.0,-100.00,South,170,4.0,6.0,92,0.00,,,0.00,,2013-02-06 12:22:00,
2013-02-06 06:32:00,11.0,9.0,-100.00,ESE,110,5.0,6.0,91,0.00,,,0.00,,2013-02-06 12:32:00,
2013-02-06 06:42:00,11.0,9.0,-100.00,East,100,4.0,6.0,91,0.00,,,0.00,,2013-02-06 12:42:00,
2013-02-06 06:52:00,12.0,9.0,-100.00,East,80,5.0,6.0,91,0.00,,,0.00,,2013-02-06 12:52:00,
2013-02-06 07:01:00,12.0,10.0,-100.00,East,85,3.0,5.0,90,0.00,,,0.00,,2013-02-06 13:01:00,
2013-02-06 07:11:00,12.0,9.0,-100.00,ESE,110,3.0,6.0,90,0.00,,,0.00,,2013-02-06 13:11:00,
2013-02-06 07:22:00,12.0,9.0,-100.00,SE,145,4.0,6.0,89,0.00,,,0.00,,2013-02-06 13:22:00,
2013-02-06 07:31:00,12.0,10.0,-100.00,SSE,160,9.0,13.0,89,0.00,,,0.00,,2013-02-06 13:31:00,
2013-02-06 07:42:00,12.0,10.0,-100.00,SSE,160,9.0,10.0,89,0.00,,,0.00,,2013-02-06 13:42:00,
2013-02-06 07:52:00,13.0,10.0,-100.00,SE,145,7.0,9.0,89,0.00,,,0.00,,2013-02-06 13:52:00,
2013-02-06 08:01:00,13.0,10.0,-100.00,SE,135,4.0,7.0,89,0.00,,,0.00,,2013-02-06 14:01:00,
2013-02-06 08:11:00,13.0,10.0,-100.00,SE,125,7.0,8.0,88,0.00,,,0.00,,2013-02-06 14:11:00,
2013-02-06 08:21:00,13.0,10.0,-100.00,SE,125,7.0,10.0,88,0.00,,,0.00,,2013-02-06 14:21:00,
2013-02-06 08:32:00,14.0,10.0,-100.00,ESE,120,7.0,10.0,89,0.00,,,0.00,,2013-02-06 14:32:00,
2013-02-06 08:41:00,14.0,12.0,-100.00,SE,135,8.0,11.0,89,0.00,,,0.00,,2013-02-06 14:41:00,
2013-02-06 08:52:00,15.0,12.0,-100.00,SE,135,9.0,12.0,89,0.00,,,0.00,,2013-02-06 14:52:00,
2013-02-06 09:01:00,15.0,12.0,-100.00,SE,130,9.0,13.0,89,0.00,,,0.00,,2013-02-06 15:01:00,
2013-02-06 09:11:00,15.0,12.0,-100.00,SE,135,11.0,13.0,89,0.00,,,0.00,,2013-02-06 15:11:00,
2013-02-06 09:21:00,15.0,14.0,-100.00,SE,140,12.0,16.0,92,0.00,,,0.00,,2013-02-06 15:21:00,
2013-02-06 09:31:00,16.0,14.0,-100.00,SE,135,12.0,15.0,94,0.00,,,0.00,,2013-02-06 15:31:00,
2013-02-06 09:41:00,16.0,14.0,-100.00,SE,130,12.0,14.0,95,0.00,,,0.00,,2013-02-06 15:41:00,
2013-02-06 09:51:00,16.0,16.0,-100.00,SE,130,11.0,16.0,96,0.00,,,0.00,,2013-02-06 15:51:00,
2013-02-06 10:01:00,17.0,16.0,-100.00,ESE,120,12.0,17.0,96,0.00,,,0.00,,2013-02-06 16:01:00,
2013-02-06 10:11:00,17.0,16.0,-100.00,ESE,120,12.0,17.0,96,0.00,,,0.00,,2013-02-06 16:11:00,
2013-02-06 10:21:00,17.0,16.0,-100.00,ESE,120,14.0,17.0,96,0.00,,,0.00,,2013-02-06 16:21:00,
2013-02-06 10:32:00,18.0,16.0,-100.00,ESE,120,12.0,17.0,96,0.00,,,0.00,,2013-02-06 16:32:00,
2013-02-06 10:42:00,18.0,18.0,-100.00,SE,135,11.0,16.0,96,0.00,,,0.00,,2013-02-06 16:42:00,
2013-02-06 10:51:00,18.0,18.0,-100.00,SE,135,14.0,17.0,96,0.00,,,0.00,,2013-02-06 16:51:00,
2013-02-06 11:02:00,18.0,18.0,-100.00,SE,130,16.0,19.0,96,0.00,,,0.00,,2013-02-06 17:02:00,
2013-02-06 11:11:00,18.0,18.0,-100.00,SE,125,14.0,19.0,96,0.00,,,0.00,,2013-02-06 17:11:00,
2013-02-06 11:21:00,19.0,18.0,-100.00,SE,125,14.0,19.0,96,0.00,,,0.00,,2013-02-06 17:21:00,
2013-02-06 11:32:00,19.0,18.0,-100.00,SE,130,14.0,20.0,95,0.00,,,0.00,,2013-02-06 17:32:00,
2013-02-06 11:41:00,19.0,18.0,-100.00,SE,125,16.0,20.0,95,0.00,,,0.00,,2013-02-06 17:41:00,
2013-02-06 11:52:00,20.0,18.0,-100.00,SE,125,16.0,20.0,94,0.00,,,0.00,,2013-02-06 17:52:00,
2013-02-06 12:01:00,21.0,19.0,-100.00,ESE,120,14.0,26.0,93,0.00,,,0.00,,2013-02-06 18:01:00,
2013-02-06 12:11:00,22.0,19.0,-100.00,ESE,115,6.0,16.0,91,0.00,,,0.00,,2013-02-06 18:11:00,
2013-02-06 12:23:00,22.0,19.0,-100.00,SE,130,6.0,12.0,90,0.00,,,0.00,,2013-02-06 18:23:00,
2013-02-06 12:32:00,22.0,19.0,-100.00,East,100,7.0,10.0,89,0.00,,,0.00,,2013-02-06 18:32:00,
2013-02-06 12:41:00,23.0,19.0,-100.00,SE,130,9.0,11.0,88,0.00,,,0.00,,2013-02-06 18:41:00,
2013-02-06 12:52:00,23.0,19.0,-100.00,SE,125,10.0,12.0,87,0.00,,,0.00,,2013-02-06 18:52:00,
2013-02-06 13:01:00,23.0,19.0,-100.00,SE,125,12.0,15.0,87,0.00,,,0.00,,2013-02-06 19:01:00,
2013-02-06 13:11:00,23.0,19.0,-100.00,SE,135,11.0,15.0,87,0.00,,,0.00,,2013-02-06 19:11:00,
2013-02-06 13:21:00,23.0,19.0,-100.00,SE,130,11.0,14.0,86,0.00,,,0.00,,2013-02-06 19:21:00,
2013-02-06 13:31:00,23.0,19.0,-100.00,ESE,120,13.0,16.0,85,0.00,,,0.00,,2013-02-06 19:31:00,
2013-02-06 13:41:00,24.0,19.0,-100.00,SE,130,14.0,17.0,85,0.00,,,0.00,,2013-02-06 19:41:00,
2013-02-06 13:52:00,23.0,19.0,-100.00,SE,135,12.0,18.0,85,0.00,,,0.00,,2013-02-06 19:52:00,
2013-02-06 14:01:00,24.0,19.0,-100.00,SE,125,12.0,17.0,85,0.00,,,0.00,,2013-02-06 20:01:00,
2013-02-06 14:11:00,24.0,21.0,-100.00,SE,125,13.0,17.0,85,0.00,,,0.00,,2013-02-06 20:11:00,
2013-02-06 14:21:00,24.0,21.0,-100.00,SE,125,11.0,16.0,85,0.00,,,0.00,,2013-02-06 20:21:00,
2013-02-06 14:32:00,24.0,21.0,-100.00,SE,135,11.0,15.0,84,0.00,,,0.00,,2013-02-06 20:32:00,
2013-02-06 14:41:00,25.0,21.0,-100.00,SE,125,9.0,14.0,84,0.00,,,0.00,,2013-02-06 20:41:00,
2013-02-06 14:52:00,25.0,21.0,-100.00,ESE,110,9.0,14.0,84,0.00,,,0.00,,2013-02-06 20:52:00,
2013-02-06 15:01:00,23.0,19.0,-100.00,East,90,9.0,11.0,85,0.00,,,0.00,,2013-02-06 21:01:00,
2013-02-06 15:11:00,23.0,19.0,-100.00,East,100,8.0,12.0,86,0.00,,,0.00,,2013-02-06 21:11:00,
2013-02-06 15:21:00,23.0,19.0,-100.00,East,100,8.0,12.0,87,0.00,,,0.00,,2013-02-06 21:21:00,
2013-02-06 15:32:00,23.0,19.0,-100.00,ESE,105,9.0,10.0,87,0.00,,,0.00,,2013-02-06 21:32:00,
2013-02-06 15:41:00,23.0,19.0,-100.00,East,90,7.0,9.0,86,0.00,,,0.00,,2013-02-06 21:41:00,
2013-02-06 15:51:00,23.0,19.0,-100.00,East,100,6.0,10.0,86,0.00,,,0.00,,2013-02-06 21:51:00,
2013-02-06 16:01:00,23.0,19.0,-100.00,ENE,70,9.0,11.0,86,0.00,,,0.00,,2013-02-06 22:01:00,
2013-02-06 16:11:00,22.0,19.0,-100.00,East,80,10.0,11.0,87,0.00,,,0.00,,2013-02-06 22:11:00,
2013-02-06 16:21:00,22.0,19.0,-100.00,East,80,11.0,12.0,88,0.00,,,0.00,,2013-02-06 22:21:00,
2013-02-06 16:31:00,22.0,19.0,-100.00,East,80,11.0,14.0,88,0.00,,,0.00,,2013-02-06 22:31:00,
2013-02-06 16:41:00,22.0,19.0,-100.00,East,85,9.0,12.0,88,0.00,,,0.00,,2013-02-06 22:41:00,
2013-02-06 16:51:00,22.0,19.0,-100.00,East,85,10.0,13.0,88,0.00,,,0.00,,2013-02-06 22:51:00,
2013-02-06 17:01:00,22.0,19.0,-100.00,East,90,9.0,12.0,88,0.00,,,0.00,,2013-02-06 23:01:00,
2013-02-06 17:11:00,21.0,18.0,-100.00,East,80,9.0,12.0,89,0.00,,,0.00,,2013-02-06 23:11:00,
2013-02-06 17:21:00,20.0,18.0,-100.00,East,80,7.0,10.0,90,0.00,,,0.00,,2013-02-06 23:21:00,
2013-02-06 17:31:00,20.0,18.0,-100.00,East,85,9.0,12.0,91,0.00,,,0.00,,2013-02-06 23:31:00,
2013-02-06 17:41:00,20.0,18.0,-100.00,East,80,9.0,12.0,91,0.00,,,0.00,,2013-02-06 23:41:00,
2013-02-06 17:52:00,19.0,18.0,-100.00,East,80,9.0,12.0,92,0.00,,,0.00,,2013-02-06 23:52:00,
2013-02-06 18:01:00,18.0,16.0,-100.00,ENE,75,6.0,10.0,92,0.00,,,0.00,,2013-02-07 00:01:00,
2013-02-06 18:11:00,18.0,16.0,-100.00,ENE,75,7.0,9.0,93,0.00,,,0.00,,2013-02-07 00:11:00,
2013-02-06 18:21:00,18.0,16.0,-100.00,ENE,65,7.0,9.0,93,0.00,,,0.00,,2013-02-07 00:21:00,
2013-02-06 18:31:00,17.0,16.0,-100.00,ENE,65,9.0,11.0,93,0.00,,,0.00,,2013-02-07 00:31:00,
2013-02-06 18:41:00,17.0,16.0,-100.00,NE,55,6.0,9.0,94,0.00,,,0.00,,2013-02-07 00:41:00,
2013-02-06 18:51:00,17.0,16.0,-100.00,ENE,60,7.0,7.0,94,0.00,,,0.00,,2013-02-07 00:51:00,
2013-02-06 19:01:00,17.0,16.0,-100.00,ENE,60,8.0,9.0,94,0.00,,,0.00,,2013-02-07 01:01:00,
2013-02-06 19:11:00,16.0,16.0,-100.00,NE,55,7.0,9.0,94,0.00,,,0.00,,2013-02-07 01:11:00,
2013-02-06 19:21:00,16.0,16.0,-100.00,ENE,65,7.0,9.0,95,0.00,,,0.00,,2013-02-07 01:21:00,
2013-02-06 19:31:00,16.0,16.0,-100.00,ENE,60,7.0,9.0,95,0.00,,,0.00,,2013-02-07 01:31:00,
2013-02-06 19:41:00,16.0,16.0,-100.00,ENE,65,7.0,9.0,95,0.00,,,0.00,,2013-02-07 01:41:00,
2013-02-06 19:52:00,16.0,16.0,-100.00,ENE,65,6.0,9.0,96,0.00,,,0.00,,2013-02-07 01:52:00,
2013-02-06 20:01:00,17.0,16.0,-100.00,ENE,65,5.0,8.0,96,0.00,,,0.00,,2013-02-07 02:01:00,
2013-02-06 20:11:00,18.0,18.0,-100.00,ENE,60,4.0,6.0,96,0.00,,,0.00,,2013-02-07 02:11:00,
2013-02-06 20:21:00,20.0,19.0,-100.00,NE,45,7.0,9.0,96,0.00,,,0.00,,2013-02-07 02:21:00,
2013-02-06 20:31:00,21.0,19.0,-100.00,NE,55,8.0,10.0,96,0.00,,,0.00,,2013-02-07 02:31:00,
2013-02-06 20:41:00,21.0,19.0,-100.00,NE,55,8.0,10.0,96,0.00,,,0.00,,2013-02-07 02:41:00,
2013-02-06 20:51:00,21.0,19.0,-100.00,NE,55,8.0,10.0,96,0.00,,,0.00,,2013-02-07 02:51:00,
2013-02-06 21:02:00,21.0,19.0,-100.00,NE,55,9.0,11.0,96,0.00,,,0.00,,2013-02-07 03:02:00,
2013-02-06 21:11:00,21.0,19.0,-100.00,NE,40,9.0,12.0,96,0.00,,,0.00,,2013-02-07 03:11:00,
2013-02-06 21:21:00,21.0,19.0,-100.00,NE,55,9.0,12.0,96,0.00,,,0.00,,2013-02-07 03:21:00,
2013-02-06 21:31:00,21.0,19.0,-100.00,NE,40,9.0,12.0,96,0.00,,,0.00,,2013-02-07 03:31:00,
2013-02-06 21:41:00,21.0,19.0,-100.00,NE,35,10.0,12.0,96,0.00,,,0.00,,2013-02-07 03:41:00,
2013-02-06 21:51:00,21.0,19.0,-100.00,NE,40,9.0,12.0,96,0.00,,,0.00,,2013-02-07 03:51:00,
2013-02-06 22:01:00,21.0,19.0,-100.00,NE,50,7.0,12.0,96,0.00,,,0.00,,2013-02-07 04:01:00,
2013-02-06 22:11:00,21.0,19.0,-100.00,NE,40,9.0,11.0,96,0.00,,,0.00,,2013-02-07 04:11:00,
2013-02-06 22:22:00,21.0,19.0,-100.00,NE,35,9.0,10.0,96,0.00,,,0.00,,2013-02-07 04:22:00,
2013-02-06 22:31:00,21.0,19.0,-100.00,NNE,30,9.0,11.0,96,0.00,,,0.00,,2013-02-07 04:31:00,
2013-02-06 22:41:00,21.0,19.0,-100.00,NNE,25,11.0,12.0,96,0.00,,,0.00,,2013-02-07 04:41:00,
2013-02-06 22:52:00,21.0,19.0,-100.00,NE,35,10.0,13.0,96,0.00,,,0.00,,2013-02-07 04:52:00,
2013-02-06 23:02:00,21.0,19.0,-100.00,NE,40,12.0,14.0,96,0.00,,,0.00,,2013-02-07 05:02:00,
2013-02-06 23:11:00,21.0,19.0,-100.00,NNE,30,12.0,14.0,96,0.00,,,0.00,,2013-02-07 05:11:00,
2013-02-06 23:21:00,21.0,19.0,-100.00,NNE,30,12.0,16.0,97,0.00,,,0.00,,2013-02-07 05:21:00,
2013-02-06 23:32:00,21.0,19.0,-100.00,NE,35,12.0,14.0,97,0.00,,,0.00,,2013-02-07 05:32:00,
2013-02-06 23:42:00,21.0,19.0,-100.00,NNE,30,12.0,14.0,97,0.00,,,0.00,,2013-02-07 05:42:00,